Time;durP1;ratioP1;P1;durP2;ratioP2;P2;SDS_P1;SDS_P2;PMS_P1;PMS_P2;Temp;Humidity;BMP_temperature;BMP_pressure;BME280_temperature;BME280_humidity;BME280_pressure;Samples;Min_cycle;Max_cycle;Signal;HPM_P1;HPM_P2
2021/03/11 00:01:36;;;;;;;36.03;22.57;;;6.00;99.90;;;;;;5042790;28;20428;-59
2021/03/11 00:04:03;;;;;;;35.63;24.23;;;6.00;99.90;;;;;;5015629;28;20237;-59
2021/03/11 00:06:31;;;;;;;37.17;23.50;;;6.00;99.90;;;;;;5031601;28;20281;-58
2021/03/11 00:08:58;;;;;;;33.13;23.10;;;6.00;99.90;;;;;;5045815;28;20319;-58
2021/03/11 00:11:25;;;;;;;38.57;24.93;;;6.00;99.90;;;;;;5043130;28;20266;-57
2021/03/11 00:13:53;;;;;;;39.00;26.13;;;6.00;99.90;;;;;;5038296;28;20232;-58
2021/03/11 00:16:21;;;;;;;37.83;24.90;;;6.00;99.90;;;;;;5030152;28;20235;-58
2021/03/11 00:18:49;;;;;;;38.30;25.03;;;6.00;99.90;;;;;;5036499;28;20703;-58
2021/03/11 00:21:16;;;;;;;39.27;25.37;;;6.00;99.90;;;;;;5027074;28;20275;-56
2021/03/11 00:23:44;;;;;;;37.63;25.17;;;6.00;99.90;;;;;;5028508;28;20319;-55
2021/03/11 00:26:12;;;;;;;39.57;25.87;;;6.00;99.90;;;;;;5023384;28;20322;-55
2021/03/11 00:28:39;;;;;;;41.47;26.33;;;6.00;99.90;;;;;;5027363;28;20275;-57
2021/03/11 00:31:07;;;;;;;39.60;26.37;;;6.00;99.90;;;;;;5019646;28;20601;-57
2021/03/11 00:33:35;;;;;;;39.97;26.37;;;6.00;99.90;;;;;;5032391;28;20318;-58
2021/03/11 00:36:03;;;;;;;40.70;27.47;;;6.00;99.90;;;;;;5035083;28;20282;-58
2021/03/11 00:38:30;;;;;;;40.97;26.70;;;6.00;99.90;;;;;;5026516;28;20321;-59
2021/03/11 00:40:57;;;;;;;43.13;26.67;;;6.00;99.90;;;;;;5042213;28;20239;-58
2021/03/11 00:43:25;;;;;;;39.93;25.90;;;6.00;99.90;;;;;;5057663;28;20289;-59
2021/03/11 00:45:52;;;;;;;40.83;27.17;;;6.00;99.90;;;;;;5046062;28;20649;-58
2021/03/11 00:48:20;;;;;;;39.73;26.83;;;6.00;99.90;;;;;;5048746;28;20243;-58
2021/03/11 00:50:48;;;;;;;40.50;25.77;;;6.00;99.90;;;;;;5047263;28;20419;-59
2021/03/11 00:53:15;;;;;;;42.13;25.93;;;6.00;99.90;;;;;;5046634;28;20286;-59
2021/03/11 00:55:43;;;;;;;40.20;26.63;;;6.00;99.90;;;;;;5047451;28;20231;-57
2021/03/11 00:58:10;;;;;;;39.40;26.93;;;6.00;99.90;;;;;;5059354;28;20235;-58
2021/03/11 01:00:39;;;;;;;40.87;26.50;;;6.00;99.90;;;;;;5065608;28;20231;-55
2021/03/11 01:03:13;;;;;;;41.17;26.23;;;6.00;99.90;;;;;;5083589;28;20242;-56
2021/03/11 01:05:50;;;;;;;40.23;25.67;;;5.90;99.90;;;;;;5050395;28;20239;-57
2021/03/11 01:08:26;;;;;;;39.60;25.90;;;5.90;99.90;;;;;;5065154;28;20262;-54
2021/03/11 01:10:53;;;;;;;39.67;24.97;;;5.90;99.90;;;;;;5067641;28;20259;-55
2021/03/11 01:13:20;;;;;;;37.00;26.27;;;5.90;99.90;;;;;;5062825;28;20270;-57
2021/03/11 01:15:48;;;;;;;39.53;26.67;;;5.90;99.90;;;;;;5046344;28;20239;-58
2021/03/11 01:18:15;;;;;;;40.93;25.67;;;5.90;99.90;;;;;;5047225;28;20235;-58
2021/03/11 01:20:43;;;;;;;38.93;24.63;;;5.90;99.90;;;;;;5046773;28;20255;-57
2021/03/11 01:23:12;;;;;;;35.17;24.10;;;5.90;99.90;;;;;;5038769;28;20245;-58
2021/03/11 01:25:39;;;;;;;33.83;24.17;;;5.90;99.90;;;;;;5048840;28;20300;-58
2021/03/11 01:28:06;;;;;;;33.03;23.20;;;5.80;99.90;;;;;;5057996;28;20301;-57
2021/03/11 01:30:34;;;;;;;35.97;24.13;;;5.80;99.90;;;;;;5052904;28;20665;-54
2021/03/11 01:33:01;;;;;;;36.53;24.27;;;5.80;99.90;;;;;;5042756;28;20641;-59
2021/03/11 01:35:29;;;;;;;34.87;24.57;;;5.80;99.90;;;;;;5058513;28;20645;-57
2021/03/11 01:37:56;;;;;;;36.70;25.47;;;5.80;99.90;;;;;;5052228;28;21000;-55
2021/03/11 01:40:25;;;;;;;36.80;25.43;;;5.80;99.90;;;;;;5056053;28;20254;-58
2021/03/11 01:42:52;;;;;;;37.40;24.53;;;5.80;99.90;;;;;;5047210;28;20258;-58
2021/03/11 01:45:22;;;;;;;35.87;25.20;;;5.80;99.90;;;;;;5048006;28;20319;-57
2021/03/11 01:47:49;;;;;;;41.27;27.23;;;5.80;99.90;;;;;;5051501;28;20250;-57
2021/03/11 01:50:17;;;;;;;40.10;27.23;;;5.80;99.90;;;;;;5065954;28;20738;-58
2021/03/11 01:52:45;;;;;;;39.37;25.93;;;5.80;99.90;;;;;;5046560;28;20244;-57
2021/03/11 01:55:14;;;;;;;38.57;25.37;;;5.80;99.90;;;;;;5047328;28;20391;-58
2021/03/11 01:57:43;;;;;;;42.10;26.87;;;5.80;99.90;;;;;;5046638;28;20238;-55
2021/03/11 02:00:13;;;;;;;37.47;24.97;;;5.80;99.90;;;;;;5046249;28;20285;-59
2021/03/11 02:02:45;;;;;;;41.97;26.87;;;5.70;99.90;;;;;;5031471;28;20239;-58
2021/03/11 02:05:16;;;;;;;40.57;28.50;;;5.70;99.90;;;;;;5045820;28;20235;-55
2021/03/11 02:07:44;;;;;;;44.57;29.00;;;5.70;99.90;;;;;;5026228;28;20263;-57
2021/03/11 02:10:17;;;;;;;40.93;26.30;;;5.70;99.90;;;;;;5025959;28;20314;-59
2021/03/11 02:13:00;;;;;;;41.93;27.50;;;5.70;99.90;;;;;;5026553;28;20298;-58
2021/03/11 02:15:32;;;;;;;39.97;26.97;;;5.70;99.90;;;;;;5037098;28;20240;-58
2021/03/11 02:18:05;;;;;;;41.23;27.57;;;5.70;99.90;;;;;;5041708;28;20228;-57
2021/03/11 02:20:59;;;;;;;38.83;26.80;;;5.70;99.90;;;;;;5043473;28;20236;-57
2021/03/11 02:23:57;;;;;;;39.07;26.10;;;5.70;99.90;;;;;;5038237;28;20239;-54
2021/03/11 02:26:41;;;;;;;41.37;26.53;;;5.70;99.90;;;;;;5044656;28;20733;-57
2021/03/11 02:29:12;;;;;;;37.63;25.10;;;5.70;99.90;;;;;;5024216;28;20573;-58
2021/03/11 02:31:43;;;;;;;37.77;26.07;;;5.70;99.90;;;;;;5031855;28;20293;-58
2021/03/11 02:34:15;;;;;;;38.13;24.53;;;5.70;99.90;;;;;;5052398;28;20243;-57
2021/03/11 02:36:50;;;;;;;39.93;24.93;;;5.70;99.90;;;;;;5053163;28;20266;-57
2021/03/11 02:39:24;;;;;;;36.10;24.20;;;5.70;99.90;;;;;;5053173;28;20308;-59
2021/03/11 02:41:54;;;;;;;37.00;24.63;;;5.70;99.90;;;;;;5044540;28;20236;-59
2021/03/11 02:44:23;;;;;;;35.80;23.40;;;5.70;99.90;;;;;;5026599;28;20483;-58
2021/03/11 02:46:52;;;;;;;33.70;22.70;;;5.70;99.90;;;;;;5026254;28;20666;-57
2021/03/11 02:49:21;;;;;;;34.63;22.67;;;5.70;99.90;;;;;;5055161;28;20603;-58
2021/03/11 02:51:51;;;;;;;33.87;24.17;;;5.70;99.90;;;;;;5066319;28;20505;-56
2021/03/11 02:54:20;;;;;;;33.70;22.60;;;5.70;99.90;;;;;;5057354;28;20711;-58
2021/03/11 02:57:03;;;;;;;32.10;22.20;;;5.70;99.90;;;;;;5026492;28;20235;-58
2021/03/11 02:59:33;;;;;;;34.50;23.07;;;5.80;99.90;;;;;;5044857;28;20689;-56
2021/03/11 03:02:01;;;;;;;30.37;21.03;;;5.80;99.90;;;;;;5046777;28;20667;-57
2021/03/11 03:04:30;;;;;;;31.27;21.83;;;5.80;99.90;;;;;;5049904;28;20228;-58
2021/03/11 03:06:58;;;;;;;33.83;23.03;;;5.70;99.90;;;;;;5049644;28;20783;-56
2021/03/11 03:09:27;;;;;;;34.03;22.80;;;5.80;99.90;;;;;;5054511;28;20755;-57
2021/03/11 03:11:55;;;;;;;33.40;22.10;;;5.80;99.90;;;;;;5064511;28;20310;-59
2021/03/11 03:14:23;;;;;;;32.53;22.43;;;5.80;99.90;;;;;;5069274;28;20246;-56
2021/03/11 03:16:52;;;;;;;32.13;21.50;;;5.80;99.90;;;;;;5049487;28;20327;-58
2021/03/11 03:19:20;;;;;;;29.60;21.93;;;5.80;99.90;;;;;;5064871;28;20322;-59
2021/03/11 03:21:48;;;;;;;30.90;22.00;;;5.80;99.90;;;;;;5044319;28;20516;-57
2021/03/11 03:24:17;;;;;;;31.97;21.90;;;5.80;99.90;;;;;;5034586;28;20259;-57
2021/03/11 03:26:45;;;;;;;33.33;22.50;;;5.80;99.90;;;;;;5030163;28;20654;-55
2021/03/11 03:29:12;;;;;;;32.97;22.97;;;5.80;99.90;;;;;;5052910;28;20239;-58
2021/03/11 03:31:40;;;;;;;31.20;21.50;;;5.80;99.90;;;;;;5053431;28;20839;-59
2021/03/11 03:34:09;;;;;;;33.90;22.03;;;5.80;99.90;;;;;;5038446;28;20248;-57
2021/03/11 03:36:36;;;;;;;31.87;22.33;;;5.80;99.90;;;;;;5064310;28;20324;-58
2021/03/11 03:39:04;;;;;;;34.37;23.10;;;5.80;99.90;;;;;;5048482;28;20591;-58
2021/03/11 03:41:35;;;;;;;34.03;21.63;;;5.80;99.90;;;;;;5049321;28;20938;-57
2021/03/11 03:44:04;;;;;;;32.63;22.40;;;5.80;99.90;;;;;;5048829;28;20235;-59
2021/03/11 03:46:32;;;;;;;34.47;22.97;;;5.80;99.90;;;;;;5049322;28;20406;-57
2021/03/11 03:49:03;;;;;;;32.80;23.60;;;5.80;99.90;;;;;;5048614;28;20242;-57
2021/03/11 03:51:36;;;;;;;32.87;22.13;;;5.80;99.90;;;;;;5049267;28;20326;-57
2021/03/11 03:54:09;;;;;;;33.73;23.67;;;5.80;99.90;;;;;;5048484;28;20501;-57
2021/03/11 03:56:39;;;;;;;33.27;23.17;;;5.80;99.90;;;;;;5051665;28;20813;-58
2021/03/11 03:59:10;;;;;;;33.73;23.57;;;5.80;99.90;;;;;;5051360;28;20385;-58
2021/03/11 04:01:40;;;;;;;32.43;22.33;;;5.80;99.90;;;;;;5048570;28;20669;-57
2021/03/11 04:04:10;;;;;;;34.93;24.00;;;5.80;99.90;;;;;;5049411;28;20736;-56
2021/03/11 04:06:40;;;;;;;33.93;23.87;;;5.80;99.90;;;;;;5048232;28;20248;-56
2021/03/11 04:09:11;;;;;;;34.03;23.17;;;5.80;99.90;;;;;;5048214;28;20236;-59
2021/03/11 04:11:39;;;;;;;33.83;22.83;;;5.80;99.90;;;;;;5048156;28;20260;-57
2021/03/11 04:14:08;;;;;;;31.70;21.10;;;5.80;99.90;;;;;;5041499;28;21339;-58
2021/03/11 04:16:37;;;;;;;34.40;22.13;;;5.80;99.90;;;;;;5028991;28;21055;-55
2021/03/11 04:19:05;;;;;;;33.63;22.33;;;5.90;99.90;;;;;;5039211;28;20560;-56
2021/03/11 04:21:33;;;;;;;34.07;22.10;;;5.90;99.90;;;;;;5040096;28;20482;-58
2021/03/11 04:24:02;;;;;;;34.40;23.87;;;5.90;99.90;;;;;;5047026;28;20327;-57
2021/03/11 04:26:30;;;;;;;35.27;23.70;;;5.90;99.90;;;;;;5040774;28;20320;-59
2021/03/11 04:28:59;;;;;;;33.47;23.10;;;5.90;99.90;;;;;;5048376;28;20484;-57
2021/03/11 04:31:27;;;;;;;36.83;28.35;;;5.90;99.90;;;;;;5055473;28;20460;-55
2021/03/11 04:34:20;;;;;;;32.67;22.77;;;5.90;99.90;;;;;;5060025;28;20317;-58
2021/03/11 04:36:48;;;;;;;33.17;22.53;;;5.90;99.90;;;;;;5049793;28;20275;-57
2021/03/11 04:39:18;;;;;;;31.87;22.87;;;5.90;99.90;;;;;;5028866;28;20302;-59
2021/03/11 04:41:46;;;;;;;31.33;21.90;;;5.90;99.90;;;;;;5027951;28;20244;-58
2021/03/11 04:44:15;;;;;;;29.77;20.53;;;5.90;99.90;;;;;;5028484;28;20233;-56
2021/03/11 04:46:43;;;;;;;27.40;19.83;;;5.90;99.90;;;;;;5028176;28;20573;-58
2021/03/11 04:49:12;;;;;;;27.70;20.53;;;6.00;99.90;;;;;;5028015;28;20247;-58
2021/03/11 04:51:40;;;;;;;29.77;20.23;;;6.00;99.90;;;;;;5028425;28;20576;-58
2021/03/11 04:54:07;;;;;;;26.40;19.03;;;6.00;99.90;;;;;;5028008;28;20243;-58
2021/03/11 04:56:52;;;;;;;26.70;19.17;;;6.00;99.90;;;;;;5027774;28;20243;-58
2021/03/11 04:59:20;;;;;;;25.10;18.00;;;6.00;99.90;;;;;;5027706;28;20259;-59
2021/03/11 05:01:52;;;;;;;26.60;17.97;;;6.00;99.90;;;;;;5028195;28;20517;-56
2021/03/11 05:04:21;;;;;;;23.50;16.93;;;6.00;99.90;;;;;;5030003;28;20236;-58
2021/03/11 05:06:48;;;;;;;23.37;18.00;;;6.00;99.90;;;;;;5026523;28;20232;-58
2021/03/11 05:09:15;;;;;;;24.63;18.70;;;6.00;99.90;;;;;;5028007;28;20264;-59
2021/03/11 05:11:43;;;;;;;24.87;17.53;;;6.00;99.90;;;;;;5027925;28;20294;-57
2021/03/11 05:14:12;;;;;;;24.87;17.63;;;6.00;99.90;;;;;;5024216;28;20260;-55
2021/03/11 05:16:39;;;;;;;24.43;17.63;;;6.10;99.90;;;;;;5023466;28;20232;-58
2021/03/11 05:19:07;;;;;;;21.73;16.43;;;6.10;99.90;;;;;;5026809;28;20252;-59
2021/03/11 05:21:34;;;;;;;24.37;17.20;;;6.10;99.90;;;;;;5026688;28;20327;-59
2021/03/11 05:24:02;;;;;;;24.00;16.00;;;6.10;99.90;;;;;;5027907;28;20724;-56
2021/03/11 05:26:29;;;;;;;24.33;17.20;;;6.10;99.90;;;;;;5016489;28;20282;-58
2021/03/11 05:28:56;;;;;;;24.93;17.07;;;6.10;99.90;;;;;;5019283;28;20479;-59
2021/03/11 05:31:25;;;;;;;21.60;16.57;;;6.10;99.90;;;;;;5016853;28;20232;-57
2021/03/11 05:33:52;;;;;;;22.83;17.23;;;6.10;99.90;;;;;;5022149;28;20259;-56
2021/03/11 05:36:20;;;;;;;25.00;17.17;;;6.20;99.90;;;;;;5042378;28;20254;-58
2021/03/11 05:38:47;;;;;;;22.23;16.70;;;6.20;99.90;;;;;;5046391;28;20361;-58
2021/03/11 05:41:15;;;;;;;20.63;15.83;;;6.20;99.90;;;;;;5047782;28;20707;-58
2021/03/11 05:43:43;;;;;;;22.37;15.97;;;6.10;99.90;;;;;;5046507;28;20481;-58
2021/03/11 05:46:11;;;;;;;21.57;16.83;;;6.20;99.90;;;;;;5047247;28;20732;-55
2021/03/11 05:48:41;;;;;;;20.70;15.97;;;6.20;99.90;;;;;;5046749;28;20876;-55
2021/03/11 05:51:10;;;;;;;21.77;15.90;;;6.20;99.90;;;;;;5039239;28;20236;-58
2021/03/11 05:53:38;;;;;;;19.87;15.33;;;6.20;99.90;;;;;;5026069;28;20471;-58
2021/03/11 05:56:07;;;;;;;20.57;15.37;;;6.20;99.90;;;;;;5016481;28;20248;-58
2021/03/11 05:58:38;;;;;;;17.83;13.63;;;6.20;99.90;;;;;;5020126;28;20236;-58
2021/03/11 06:01:07;;;;;;;19.20;15.97;;;6.30;99.90;;;;;;5006357;28;20268;-59
2021/03/11 06:03:35;;;;;;;22.07;16.80;;;6.30;99.90;;;;;;5027995;28;20232;-58
2021/03/11 06:06:05;;;;;;;22.73;17.40;;;6.30;99.90;;;;;;5021521;28;20245;-59
2021/03/11 06:08:34;;;;;;;20.17;16.23;;;6.30;99.90;;;;;;5022597;28;20338;-59
2021/03/11 06:11:02;;;;;;;23.33;17.07;;;6.30;99.90;;;;;;5016697;28;20605;-59
2021/03/11 06:13:30;;;;;;;19.97;16.10;;;6.30;99.90;;;;;;5028824;28;20271;-58
2021/03/11 06:16:04;;;;;;;23.40;17.37;;;6.30;99.90;;;;;;5033374;28;20711;-59
2021/03/11 06:18:32;;;;;;;24.23;16.87;;;6.30;99.90;;;;;;5023332;28;20490;-57
2021/03/11 06:21:00;;;;;;;21.73;17.07;;;6.40;99.90;;;;;;5027932;28;20327;-58
2021/03/11 06:23:30;;;;;;;22.30;16.93;;;6.40;99.90;;;;;;5016648;28;20484;-58
2021/03/11 06:25:58;;;;;;;20.93;15.60;;;6.40;99.90;;;;;;5024123;28;20348;-56
2021/03/11 06:28:51;;;;;;;23.13;17.10;;;6.40;99.90;;;;;;5027471;28;20256;-58
2021/03/11 06:31:21;;;;;;;21.50;16.80;;;6.40;99.90;;;;;;5038098;28;20969;-58
2021/03/11 06:33:49;;;;;;;22.60;17.13;;;6.40;99.90;;;;;;5043011;28;20245;-57
2021/03/11 06:36:17;;;;;;;24.27;17.23;;;6.40;99.90;;;;;;5031947;28;20599;-59
2021/03/11 06:38:46;;;;;;;22.87;16.80;;;6.50;99.90;;;;;;5030701;28;20687;-58
2021/03/11 06:41:14;;;;;;;20.20;15.43;;;6.40;99.90;;;;;;5037543;28;20573;-57
2021/03/11 06:43:56;;;;;;;22.40;15.77;;;6.50;99.90;;;;;;5036655;28;20290;-58
2021/03/11 06:46:26;;;;;;;20.60;15.40;;;6.50;99.90;;;;;;5014829;28;20253;-58
2021/03/11 06:49:07;;;;;;;21.17;16.40;;;6.50;99.90;;;;;;5010183;28;20357;-59
2021/03/11 06:51:35;;;;;;;19.80;15.90;;;6.60;99.90;;;;;;5030896;28;20307;-57
2021/03/11 06:54:05;;;;;;;21.50;16.50;;;6.60;99.90;;;;;;5012368;28;20260;-57
2021/03/11 06:56:32;;;;;;;24.53;16.37;;;6.60;99.90;;;;;;5041368;28;20263;-56
2021/03/11 06:59:03;;;;;;;22.93;17.57;;;6.70;99.90;;;;;;5042668;28;20302;-57
2021/03/11 07:01:33;;;;;;;21.40;16.57;;;6.60;99.90;;;;;;5038748;28;20241;-58
2021/03/11 07:04:02;;;;;;;21.17;16.63;;;6.70;99.90;;;;;;5029373;28;20567;-58
2021/03/11 07:06:33;;;;;;;22.20;17.10;;;6.70;99.90;;;;;;5040855;28;20259;-56
2021/03/11 07:09:03;;;;;;;23.07;17.00;;;6.70;99.90;;;;;;5036350;28;20856;-58
2021/03/11 07:11:31;;;;;;;21.17;16.33;;;6.80;99.90;;;;;;5042142;28;20266;-59
2021/03/11 07:14:03;;;;;;;21.00;16.10;;;6.80;99.90;;;;;;5043388;28;20228;-58
2021/03/11 07:16:34;;;;;;;21.73;16.23;;;6.80;99.90;;;;;;5047269;28;20243;-58
2021/03/11 07:19:13;;;;;;;23.07;15.67;;;6.80;99.90;;;;;;5046645;28;20235;-56
2021/03/11 07:21:44;;;;;;;19.60;15.67;;;6.90;99.90;;;;;;5040767;28;20711;-59
2021/03/11 07:24:14;;;;;;;19.87;15.83;;;6.90;99.90;;;;;;5045935;28;20282;-59
2021/03/11 07:26:57;;;;;;;20.73;16.10;;;6.90;99.90;;;;;;5042850;28;20228;-57
2021/03/11 07:29:24;;;;;;;19.23;15.47;;;7.00;99.90;;;;;;5027114;28;20229;-58
2021/03/11 07:31:57;;;;;;;19.47;16.37;;;7.00;99.90;;;;;;5045392;28;20225;-58
2021/03/11 07:34:27;;;;;;;20.27;16.23;;;7.00;99.90;;;;;;5029661;28;20681;-58
2021/03/11 07:36:58;;;;;;;21.77;16.83;;;7.10;99.90;;;;;;5027178;28;20228;-58
2021/03/11 07:39:36;;;;;;;20.23;15.87;;;7.10;99.90;;;;;;5028611;28;20306;-57
2021/03/11 07:42:07;;;;;;;19.77;15.87;;;7.10;99.90;;;;;;5029390;28;20236;-56
2021/03/11 07:44:35;;;;;;;17.97;15.70;;;7.20;99.90;;;;;;5029437;28;20248;-58
2021/03/11 07:47:06;;;;;;;18.00;15.37;;;7.10;99.90;;;;;;5029498;28;20760;-59
2021/03/11 07:49:34;;;;;;;18.20;15.63;;;7.20;99.90;;;;;;5028801;28;20305;-55
2021/03/11 07:52:03;;;;;;;18.40;15.17;;;7.20;99.90;;;;;;5033220;28;20229;-57
2021/03/11 07:54:33;;;;;;;18.00;15.10;;;7.20;99.90;;;;;;5009675;28;20264;-56
2021/03/11 07:57:01;;;;;;;19.23;15.43;;;7.20;99.90;;;;;;5025347;28;20240;-58
2021/03/11 07:59:29;;;;;;;19.50;15.63;;;7.20;99.90;;;;;;5028601;28;20244;-59
2021/03/11 08:02:00;;;;;;;20.57;15.90;;;7.20;99.90;;;;;;5024492;28;20232;-55
2021/03/11 08:04:33;;;;;;;20.57;16.73;;;7.20;99.90;;;;;;5025855;28;20274;-58
2021/03/11 08:07:23;;;;;;;23.55;21.13;;;7.30;99.90;;;;;;5049029;28;20437;-56
2021/03/11 08:09:53;;;;;;;21.83;17.03;;;7.30;99.90;;;;;;5041537;28;20229;-57
2021/03/11 08:12:42;;;;;;;20.73;16.10;;;7.30;99.90;;;;;;5039156;28;20235;-54
2021/03/11 08:15:33;;;;;;;18.63;15.00;;;7.40;99.90;;;;;;5051286;28;20305;-56
2021/03/11 08:18:04;;;;;;;19.53;15.40;;;7.40;99.90;;;;;;5048365;28;20235;-55
2021/03/11 08:20:41;;;;;;;18.67;15.13;;;7.50;99.90;;;;;;5043473;28;20830;-53
2021/03/11 08:23:11;;;;;;;18.33;15.43;;;7.40;99.90;;;;;;5036304;28;20235;-56
2021/03/11 08:25:47;;;;;;;17.23;15.33;;;7.50;99.90;;;;;;5033149;28;20262;-56
2021/03/11 08:28:48;;;;;;;20.07;16.40;;;7.50;99.90;;;;;;5048439;28;20259;-57
2021/03/11 08:31:15;;;;;;;18.03;15.20;;;7.60;99.90;;;;;;5043903;28;20232;-55
2021/03/11 08:33:50;;;;;;;20.80;16.70;;;7.70;99.90;;;;;;5046137;28;20249;-54
2021/03/11 08:36:33;;;;;;;18.73;14.80;;;7.70;99.90;;;;;;5051355;28;20527;-55
2021/03/11 08:39:02;;;;;;;18.17;14.83;;;7.70;99.90;;;;;;5068506;28;20312;-54
2021/03/11 08:41:34;;;;;;;16.37;13.97;;;7.70;99.90;;;;;;5067570;28;20288;-54
2021/03/11 08:44:06;;;;;;;17.13;14.57;;;7.70;99.90;;;;;;5030571;28;20749;-55
2021/03/11 08:46:52;;;;;;;20.33;15.80;;;7.90;99.90;;;;;;5008672;28;20716;-58
2021/03/11 08:49:42;;;;;;;19.20;16.37;;;8.00;99.90;;;;;;5008085;28;20477;-54
2021/03/11 08:52:42;;;;;;;19.10;16.77;;;8.00;99.90;;;;;;5016412;28;20347;-56
2021/03/11 08:55:32;;;;;;;17.27;15.47;;;8.10;99.90;;;;;;5044663;28;20238;-55
2021/03/11 08:58:03;;;;;;;22.10;16.57;;;8.10;99.90;;;;;;5033509;28;20339;-54
2021/03/11 09:00:59;;;;;;;24.00;21.50;;;8.20;99.90;;;;;;5027349;28;20311;-56
2021/03/11 09:03:41;;;;;;;17.93;15.13;;;8.30;99.90;;;;;;5026102;28;20650;-53
2021/03/11 09:06:10;;;;;;;17.03;15.30;;;8.40;99.90;;;;;;5023380;28;20244;-52
2021/03/11 09:08:47;;;;;;;17.37;14.73;;;8.50;99.90;;;;;;5026647;28;20248;-53
2021/03/11 09:11:20;;;;;;;16.23;14.53;;;8.50;99.90;;;;;;5026844;28;20228;-55
2021/03/11 09:13:51;;;;;;;17.07;14.23;;;8.50;99.90;;;;;;5027581;28;20247;-56
2021/03/11 09:16:24;;;;;;;16.20;14.40;;;8.50;99.90;;;;;;5027880;28;20267;-54
2021/03/11 09:18:54;;;;;;;16.97;13.70;;;8.70;99.90;;;;;;5027863;28;20239;-54
2021/03/11 09:21:22;;;;;;;14.30;12.73;;;8.70;99.90;;;;;;5055392;28;20237;-53
2021/03/11 09:23:49;;;;;;;16.27;14.37;;;8.90;99.90;;;;;;5047940;28;20251;-54
2021/03/11 09:26:27;;;;;;;16.07;13.63;;;9.10;99.90;;;;;;5039165;28;20727;-55
2021/03/11 09:28:56;;;;;;;14.43;12.93;;;9.40;99.90;;;;;;5047001;28;20285;-54
2021/03/11 09:31:26;;;;;;;13.70;11.63;;;9.80;99.90;;;;;;5046806;28;20301;-56
2021/03/11 09:33:55;;;;;;;15.57;11.40;;;9.90;99.90;;;;;;5047534;28;20259;-53
2021/03/11 09:36:23;;;;;;;16.20;11.03;;;10.00;99.90;;;;;;5034854;28;20256;-54
2021/03/11 09:38:51;;;;;;;12.00;10.73;;;10.30;99.90;;;;;;5036297;28;21516;-52
2021/03/11 09:41:25;;;;;;;12.97;10.07;;;10.60;99.90;;;;;;5030885;28;20256;-53
2021/03/11 09:43:55;;;;;;;10.80;9.77;;;10.80;99.90;;;;;;5027380;28;20303;-54
2021/03/11 09:46:24;;;;;;;11.90;8.77;;;10.80;99.90;;;;;;5027798;28;20259;-54
2021/03/11 09:48:54;;;;;;;9.57;8.57;;;10.90;99.90;;;;;;5027822;28;20268;-55
2021/03/11 09:51:23;;;;;;;10.03;8.93;;;10.80;99.90;;;;;;5038892;28;20935;-54
2021/03/11 09:53:54;;;;;;;12.57;9.10;;;11.10;99.90;;;;;;5047617;28;20239;-57
2021/03/11 09:56:24;;;;;;;9.83;8.07;;;11.30;99.90;;;;;;5034195;28;20244;-57
2021/03/11 09:58:55;;;;;;;8.53;7.23;;;11.40;99.90;;;;;;5034711;28;20323;-57
2021/03/11 10:01:30;;;;;;;11.27;7.70;;;11.20;99.90;;;;;;5037600;28;20322;-52
2021/03/11 10:03:59;;;;;;;8.80;7.90;;;11.10;99.90;;;;;;5045056;28;20284;-53
2021/03/11 10:06:29;;;;;;;9.30;7.37;;;11.00;99.90;;;;;;5041933;28;20233;-53
2021/03/11 10:08:59;;;;;;;11.17;8.00;;;10.90;99.90;;;;;;5041958;28;20233;-52
2021/03/11 10:11:33;;;;;;;9.57;7.33;;;10.80;99.90;;;;;;5047650;28;20655;-52
2021/03/11 10:14:14;;;;;;;9.23;6.80;;;10.60;99.90;;;;;;5051263;28;20254;-54
2021/03/11 10:17:07;;;;;;;12.43;7.90;;;10.50;99.90;;;;;;5047891;28;20233;-52
2021/03/11 10:19:37;;;;;;;9.53;6.80;;;10.50;99.90;;;;;;5040127;28;20236;-52
2021/03/11 10:22:06;;;;;;;10.90;5.60;;;10.40;99.90;;;;;;5062730;28;20231;-55
2021/03/11 10:24:41;;;;;;;8.47;5.50;;;10.20;99.90;;;;;;5036224;28;20625;-52
2021/03/11 10:27:23;;;;;;;9.90;5.87;;;10.10;99.90;;;;;;5044348;28;20263;-54
2021/03/11 10:30:04;;;;;;;11.13;6.07;;;10.00;99.90;;;;;;5030284;28;20592;-54
2021/03/11 10:32:32;;;;;;;8.60;4.60;;;9.90;99.90;;;;;;5031390;28;20241;-55
2021/03/11 10:35:01;;;;;;;10.13;4.47;;;9.80;99.90;;;;;;5022461;28;20233;-54
2021/03/11 10:37:30;;;;;;;9.70;4.43;;;9.60;99.90;;;;;;5029897;28;20323;-54
2021/03/11 10:40:05;;;;;;;11.07;4.80;;;9.50;99.90;;;;;;5019208;28;20229;-52
2021/03/11 10:42:42;;;;;;;8.13;4.17;;;9.50;99.90;;;;;;5011208;28;20299;-54
2021/03/11 10:45:13;;;;;;;9.20;5.20;;;9.50;99.90;;;;;;5016602;28;20337;-53
2021/03/11 10:47:42;;;;;;;10.07;4.57;;;9.50;99.90;;;;;;5030935;28;20319;-53
2021/03/11 10:50:18;;;;;;;12.60;5.13;;;9.80;99.90;;;;;;5029919;28;20699;-55
2021/03/11 10:52:49;;;;;;;8.83;5.33;;;10.10;99.90;;;;;;5010398;28;20238;-54
2021/03/11 10:55:27;;;;;;;9.43;4.70;;;10.20;99.90;;;;;;5024839;28;20241;-54
2021/03/11 10:57:54;;;;;;;10.17;5.23;;;10.20;99.90;;;;;;5044888;28;20229;-56
2021/03/11 11:00:25;;;;;;;12.57;5.20;;;10.30;99.90;;;;;;5036524;28;20716;-55
2021/03/11 11:02:54;;;;;;;10.57;4.73;;;10.60;99.90;;;;;;5046771;28;20305;-52
2021/03/11 11:05:23;;;;;;;10.47;3.80;;;11.00;99.90;;;;;;5020284;28;20801;-56
2021/03/11 11:07:51;;;;;;;8.23;3.30;;;11.30;99.90;;;;;;5029554;28;20329;-54
2021/03/11 11:10:21;;;;;;;9.47;3.27;;;11.20;99.90;;;;;;5028267;28;20321;-57
2021/03/11 11:12:49;;;;;;;9.87;3.30;;;10.90;99.90;;;;;;5030059;28;20731;-52
2021/03/11 11:15:18;;;;;;;8.73;3.17;;;11.20;99.90;;;;;;5028391;28;20752;-54
2021/03/11 11:17:46;;;;;;;8.80;3.00;;;11.60;99.90;;;;;;5017123;28;20235;-55
2021/03/11 11:20:17;;;;;;;8.43;3.50;;;11.70;99.90;;;;;;5018646;28;20308;-54
2021/03/11 11:22:44;;;;;;;7.97;3.70;;;11.40;99.90;;;;;;5040318;28;20785;-57
2021/03/11 11:25:14;;;;;;;10.73;4.40;;;11.20;99.90;;;;;;5027385;28;20257;-57
2021/03/11 11:27:42;;;;;;;9.33;4.57;;;11.40;99.90;;;;;;5017216;28;20255;-55
2021/03/11 11:30:13;;;;;;;7.33;3.30;;;11.60;99.90;;;;;;5028628;28;20243;-56
2021/03/11 11:32:42;;;;;;;7.43;3.33;;;11.70;99.90;;;;;;5022824;28;20248;-56
2021/03/11 11:35:14;;;;;;;7.73;3.13;;;11.80;99.90;;;;;;5026484;28;20242;-57
2021/03/11 11:37:42;;;;;;;9.63;3.60;;;11.90;99.90;;;;;;5021232;28;20241;-53
2021/03/11 11:40:11;;;;;;;6.87;2.60;;;12.00;99.90;;;;;;5043375;28;20290;-54
2021/03/11 11:42:38;;;;;;;8.40;3.17;;;11.90;99.90;;;;;;5025737;28;20650;-56
2021/03/11 11:45:10;;;;;;;9.73;3.30;;;11.90;99.90;;;;;;5031903;28;20318;-54
2021/03/11 11:47:39;;;;;;;8.83;3.00;;;12.10;99.90;;;;;;5045482;28;20567;-53
2021/03/11 11:50:09;;;;;;;7.93;2.77;;;12.30;99.90;;;;;;5039382;28;20233;-54
2021/03/11 11:52:38;;;;;;;7.60;3.00;;;12.50;99.90;;;;;;5048166;28;20260;-50
2021/03/11 11:55:09;;;;;;;10.43;3.63;;;12.70;99.90;;;;;;5057046;28;20245;-53
2021/03/11 11:57:37;;;;;;;8.70;2.90;;;12.70;99.90;;;;;;5041298;28;20256;-52
2021/03/11 12:00:13;;;;;;;11.60;3.33;;;12.70;99.90;;;;;;5036430;28;20636;-55
2021/03/11 12:02:40;;;;;;;10.93;2.73;;;12.50;99.90;;;;;;5050039;28;20239;-54
2021/03/11 12:05:09;;;;;;;9.43;2.90;;;12.20;99.90;;;;;;5041504;28;20231;-54
2021/03/11 12:07:38;;;;;;;12.97;3.17;;;12.10;99.90;;;;;;5039030;28;20710;-53
2021/03/11 12:10:09;;;;;;;9.50;2.70;;;11.70;99.90;;;;;;5040575;28;20572;-51
2021/03/11 12:12:38;;;;;;;11.13;2.63;;;11.40;99.90;;;;;;5041842;28;20694;-53
2021/03/11 12:15:07;;;;;;;14.87;3.47;;;11.20;99.90;;;;;;5037656;28;20291;-52
2021/03/11 12:17:35;;;;;;;12.23;3.43;;;11.00;99.90;;;;;;5045482;28;20229;-55
2021/03/11 12:20:28;;;;;;;15.10;3.40;;;10.90;99.90;;;;;;5042705;28;20229;-53
2021/03/11 12:22:56;;;;;;;15.37;3.70;;;10.90;99.90;;;;;;5030586;28;20257;-54
2021/03/11 12:25:23;;;;;;;14.60;4.07;;;10.90;99.90;;;;;;5033617;28;20236;-50
2021/03/11 12:27:51;;;;;;;10.27;2.83;;;10.90;99.90;;;;;;5012368;28;20300;-50
2021/03/11 12:30:21;;;;;;;13.93;2.80;;;10.90;99.90;;;;;;5027330;28;20672;-52
2021/03/11 12:33:13;;;;;;;11.67;3.43;;;10.90;99.90;;;;;;5027836;28;20702;-53
2021/03/11 12:35:41;;;;;;;10.57;2.77;;;10.80;99.90;;;;;;5017872;28;20241;-51
2021/03/11 12:38:09;;;;;;;12.80;2.63;;;10.80;99.90;;;;;;5009791;28;20458;-53
2021/03/11 12:40:38;;;;;;;12.00;2.93;;;10.60;99.90;;;;;;5007784;28;20578;-53
2021/03/11 12:43:06;;;;;;;10.90;2.70;;;10.60;99.90;;;;;;5016429;28;20251;-51
2021/03/11 12:45:45;;;;;;;13.73;3.40;;;10.60;99.90;;;;;;5012048;28;20237;-52
2021/03/11 12:48:13;;;;;;;10.67;2.90;;;10.50;99.90;;;;;;5012283;28;20257;-55
2021/03/11 12:50:40;;;;;;;13.57;2.93;;;10.40;99.90;;;;;;5015122;28;20242;-53
2021/03/11 12:53:09;;;;;;;13.13;3.03;;;10.40;99.90;;;;;;5023914;28;20236;-51
2021/03/11 12:55:37;;;;;;;14.73;3.27;;;10.30;99.90;;;;;;5039075;28;20244;-50
2021/03/11 12:58:07;;;;;;;13.67;3.50;;;10.20;99.90;;;;;;5022874;28;20248;-51